sensor_id;sensor_type;location;lat;lon;timestamp;P1;durP1;ratioP1;P2;durP2;ratioP2
14892;SDS011;7538;53.626;9.906;2022-08-19T00:01:24;21.00;;;18.67;;
14892;SDS011;7538;53.626;9.906;2022-08-19T00:03:52;24.50;;;21.95;;
14892;SDS011;7538;53.626;9.906;2022-08-19T00:06:19;26.75;;;21.85;;
14892;SDS011;7538;53.626;9.906;2022-08-19T00:08:46;22.17;;;19.48;;
14892;SDS011;7538;53.626;9.906;2022-08-19T00:11:13;25.90;;;21.30;;
14892;SDS011;7538;53.626;9.906;2022-08-19T00:13:42;23.88;;;21.38;;
14892;SDS011;7538;53.626;9.906;2022-08-19T00:16:10;32.38;;;24.35;;
14892;SDS011;7538;53.626;9.906;2022-08-19T00:18:37;25.10;;;20.27;;
14892;SDS011;7538;53.626;9.906;2022-08-19T00:21:05;27.15;;;22.73;;
14892;SDS011;7538;53.626;9.906;2022-08-19T00:23:32;29.10;;;23.02;;
14892;SDS011;7538;53.626;9.906;2022-08-19T00:26:01;28.05;;;21.95;;
14892;SDS011;7538;53.626;9.906;2022-08-19T00:28:28;28.13;;;21.77;;
14892;SDS011;7538;53.626;9.906;2022-08-19T00:30:57;26.23;;;22.10;;
14892;SDS011;7538;53.626;9.906;2022-08-19T00:33:24;27.50;;;22.00;;
14892;SDS011;7538;53.626;9.906;2022-08-19T00:35:51;33.08;;;23.48;;
14892;SDS011;7538;53.626;9.906;2022-08-19T00:38:19;26.98;;;22.23;;
14892;SDS011;7538;53.626;9.906;2022-08-19T00:40:47;30.92;;;23.85;;
14892;SDS011;7538;53.626;9.906;2022-08-19T00:43:17;29.92;;;23.42;;
14892;SDS011;7538;53.626;9.906;2022-08-19T00:45:45;27.52;;;22.92;;
14892;SDS011;7538;53.626;9.906;2022-08-19T00:48:14;26.48;;;19.67;;
14892;SDS011;7538;53.626;9.906;2022-08-19T00:50:42;24.70;;;20.50;;
14892;SDS011;7538;53.626;9.906;2022-08-19T00:53:10;24.50;;;20.92;;
14892;SDS011;7538;53.626;9.906;2022-08-19T00:55:40;27.52;;;20.38;;
14892;SDS011;7538;53.626;9.906;2022-08-19T00:58:12;24.25;;;19.92;;
14892;SDS011;7538;53.626;9.906;2022-08-19T01:00:42;23.95;;;20.13;;
14892;SDS011;7538;53.626;9.906;2022-08-19T01:03:10;25.88;;;19.58;;
14892;SDS011;7538;53.626;9.906;2022-08-19T01:05:44;24.48;;;18.63;;
14892;SDS011;7538;53.626;9.906;2022-08-19T01:08:13;22.48;;;18.13;;
14892;SDS011;7538;53.626;9.906;2022-08-19T01:10:43;25.10;;;19.65;;
14892;SDS011;7538;53.626;9.906;2022-08-19T01:13:11;23.58;;;19.88;;
14892;SDS011;7538;53.626;9.906;2022-08-19T01:15:41;23.55;;;18.83;;
14892;SDS011;7538;53.626;9.906;2022-08-19T01:18:10;26.70;;;20.85;;
14892;SDS011;7538;53.626;9.906;2022-08-19T01:20:40;27.73;;;20.20;;
14892;SDS011;7538;53.626;9.906;2022-08-19T01:23:09;25.98;;;20.05;;
14892;SDS011;7538;53.626;9.906;2022-08-19T01:25:39;24.45;;;20.08;;
14892;SDS011;7538;53.626;9.906;2022-08-19T01:28:14;26.98;;;21.92;;
14892;SDS011;7538;53.626;9.906;2022-08-19T01:30:43;27.88;;;20.90;;
14892;SDS011;7538;53.626;9.906;2022-08-19T01:33:10;28.15;;;20.70;;
14892;SDS011;7538;53.626;9.906;2022-08-19T01:35:37;24.80;;;19.88;;
14892;SDS011;7538;53.626;9.906;2022-08-19T01:38:05;29.02;;;21.80;;
14892;SDS011;7538;53.626;9.906;2022-08-19T01:40:37;28.92;;;22.90;;
14892;SDS011;7538;53.626;9.906;2022-08-19T01:43:07;35.05;;;24.77;;
14892;SDS011;7538;53.626;9.906;2022-08-19T01:45:35;32.53;;;24.52;;
14892;SDS011;7538;53.626;9.906;2022-08-19T01:48:02;33.88;;;22.63;;
14892;SDS011;7538;53.626;9.906;2022-08-19T01:50:30;31.67;;;22.77;;
14892;SDS011;7538;53.626;9.906;2022-08-19T01:52:59;30.50;;;21.42;;
14892;SDS011;7538;53.626;9.906;2022-08-19T01:55:26;29.08;;;21.70;;
14892;SDS011;7538;53.626;9.906;2022-08-19T01:57:57;32.67;;;23.88;;
14892;SDS011;7538;53.626;9.906;2022-08-19T02:00:25;33.05;;;23.17;;
14892;SDS011;7538;53.626;9.906;2022-08-19T02:02:54;32.25;;;23.83;;
14892;SDS011;7538;53.626;9.906;2022-08-19T02:05:21;32.78;;;23.00;;
14892;SDS011;7538;53.626;9.906;2022-08-19T02:07:48;35.90;;;24.67;;
14892;SDS011;7538;53.626;9.906;2022-08-19T02:10:17;32.67;;;22.58;;
14892;SDS011;7538;53.626;9.906;2022-08-19T02:12:45;39.17;;;25.10;;
14892;SDS011;7538;53.626;9.906;2022-08-19T02:15:14;41.95;;;25.08;;
14892;SDS011;7538;53.626;9.906;2022-08-19T02:17:41;42.90;;;25.75;;
14892;SDS011;7538;53.626;9.906;2022-08-19T02:20:09;41.80;;;26.23;;
14892;SDS011;7538;53.626;9.906;2022-08-19T02:22:38;38.53;;;25.88;;
14892;SDS011;7538;53.626;9.906;2022-08-19T02:25:06;37.05;;;24.33;;
14892;SDS011;7538;53.626;9.906;2022-08-19T02:27:34;42.63;;;26.50;;
14892;SDS011;7538;53.626;9.906;2022-08-19T02:30:01;35.05;;;23.90;;
14892;SDS011;7538;53.626;9.906;2022-08-19T02:32:31;42.72;;;26.75;;
14892;SDS011;7538;53.626;9.906;2022-08-19T02:34:58;39.58;;;25.58;;
14892;SDS011;7538;53.626;9.906;2022-08-19T02:37:25;48.17;;;27.30;;
14892;SDS011;7538;53.626;9.906;2022-08-19T02:40:10;46.08;;;27.80;;
14892;SDS011;7538;53.626;9.906;2022-08-19T02:42:38;49.88;;;27.30;;
14892;SDS011;7538;53.626;9.906;2022-08-19T02:45:06;51.85;;;29.67;;
14892;SDS011;7538;53.626;9.906;2022-08-19T02:47:34;48.75;;;28.02;;
14892;SDS011;7538;53.626;9.906;2022-08-19T02:50:02;51.05;;;28.85;;
14892;SDS011;7538;53.626;9.906;2022-08-19T02:52:30;46.22;;;27.70;;
14892;SDS011;7538;53.626;9.906;2022-08-19T02:54:57;50.53;;;28.23;;
14892;SDS011;7538;53.626;9.906;2022-08-19T02:57:25;43.83;;;26.80;;
14892;SDS011;7538;53.626;9.906;2022-08-19T02:59:52;47.67;;;26.73;;
14892;SDS011;7538;53.626;9.906;2022-08-19T03:02:19;50.75;;;27.42;;
14892;SDS011;7538;53.626;9.906;2022-08-19T03:04:48;45.85;;;27.73;;
14892;SDS011;7538;53.626;9.906;2022-08-19T03:07:16;47.05;;;26.27;;
14892;SDS011;7538;53.626;9.906;2022-08-19T03:09:44;45.60;;;26.40;;
14892;SDS011;7538;53.626;9.906;2022-08-19T03:12:11;42.67;;;26.23;;
14892;SDS011;7538;53.626;9.906;2022-08-19T03:14:38;49.03;;;26.48;;
14892;SDS011;7538;53.626;9.906;2022-08-19T03:17:05;42.35;;;25.85;;
14892;SDS011;7538;53.626;9.906;2022-08-19T03:19:32;45.35;;;26.10;;
14892;SDS011;7538;53.626;9.906;2022-08-19T03:22:01;41.65;;;24.25;;
14892;SDS011;7538;53.626;9.906;2022-08-19T03:24:29;35.45;;;23.48;;
14892;SDS011;7538;53.626;9.906;2022-08-19T03:26:57;43.65;;;25.08;;
14892;SDS011;7538;53.626;9.906;2022-08-19T03:29:25;41.78;;;25.13;;
14892;SDS011;7538;53.626;9.906;2022-08-19T03:31:52;41.03;;;23.35;;
14892;SDS011;7538;53.626;9.906;2022-08-19T03:34:22;36.65;;;21.08;;
14892;SDS011;7538;53.626;9.906;2022-08-19T03:36:52;37.75;;;22.80;;
14892;SDS011;7538;53.626;9.906;2022-08-19T03:39:21;31.13;;;21.85;;
14892;SDS011;7538;53.626;9.906;2022-08-19T03:41:49;36.22;;;23.90;;
14892;SDS011;7538;53.626;9.906;2022-08-19T03:44:17;36.60;;;23.65;;
14892;SDS011;7538;53.626;9.906;2022-08-19T03:46:45;39.88;;;24.10;;
14892;SDS011;7538;53.626;9.906;2022-08-19T03:49:13;37.92;;;22.65;;
14892;SDS011;7538;53.626;9.906;2022-08-19T03:51:41;33.10;;;22.20;;
14892;SDS011;7538;53.626;9.906;2022-08-19T03:54:10;35.80;;;21.35;;
14892;SDS011;7538;53.626;9.906;2022-08-19T03:56:40;35.72;;;22.67;;
14892;SDS011;7538;53.626;9.906;2022-08-19T03:59:09;39.15;;;23.38;;
14892;SDS011;7538;53.626;9.906;2022-08-19T04:01:36;41.85;;;24.00;;
14892;SDS011;7538;53.626;9.906;2022-08-19T04:04:04;36.88;;;22.63;;
14892;SDS011;7538;53.626;9.906;2022-08-19T04:06:32;40.03;;;26.02;;
14892;SDS011;7538;53.626;9.906;2022-08-19T04:09:01;43.30;;;27.50;;
14892;SDS011;7538;53.626;9.906;2022-08-19T04:11:31;44.42;;;26.05;;
14892;SDS011;7538;53.626;9.906;2022-08-19T04:14:00;45.55;;;27.30;;
14892;SDS011;7538;53.626;9.906;2022-08-19T04:16:27;55.20;;;30.50;;
14892;SDS011;7538;53.626;9.906;2022-08-19T04:18:55;60.45;;;31.92;;
14892;SDS011;7538;53.626;9.906;2022-08-19T04:21:23;60.20;;;32.53;;
14892;SDS011;7538;53.626;9.906;2022-08-19T04:23:50;53.42;;;31.88;;
14892;SDS011;7538;53.626;9.906;2022-08-19T04:26:18;53.53;;;32.35;;
14892;SDS011;7538;53.626;9.906;2022-08-19T04:28:46;52.45;;;30.45;;
14892;SDS011;7538;53.626;9.906;2022-08-19T04:31:16;54.90;;;31.55;;
14892;SDS011;7538;53.626;9.906;2022-08-19T04:33:44;55.55;;;31.52;;
14892;SDS011;7538;53.626;9.906;2022-08-19T04:36:15;48.72;;;29.38;;
14892;SDS011;7538;53.626;9.906;2022-08-19T04:38:42;46.45;;;30.10;;
14892;SDS011;7538;53.626;9.906;2022-08-19T04:41:09;50.08;;;30.00;;
14892;SDS011;7538;53.626;9.906;2022-08-19T04:43:55;45.72;;;29.35;;
14892;SDS011;7538;53.626;9.906;2022-08-19T04:46:23;53.55;;;31.90;;
14892;SDS011;7538;53.626;9.906;2022-08-19T04:48:50;45.22;;;29.80;;
14892;SDS011;7538;53.626;9.906;2022-08-19T04:51:17;40.90;;;27.27;;
14892;SDS011;7538;53.626;9.906;2022-08-19T04:53:45;40.42;;;28.17;;
14892;SDS011;7538;53.626;9.906;2022-08-19T04:56:13;40.00;;;28.25;;
14892;SDS011;7538;53.626;9.906;2022-08-19T04:58:42;42.65;;;28.20;;
14892;SDS011;7538;53.626;9.906;2022-08-19T05:01:11;38.17;;;26.20;;
14892;SDS011;7538;53.626;9.906;2022-08-19T05:03:40;46.85;;;27.85;;
14892;SDS011;7538;53.626;9.906;2022-08-19T05:06:08;33.70;;;24.45;;
14892;SDS011;7538;53.626;9.906;2022-08-19T05:08:36;32.90;;;24.48;;
14892;SDS011;7538;53.626;9.906;2022-08-19T05:11:07;37.40;;;25.80;;
14892;SDS011;7538;53.626;9.906;2022-08-19T05:13:36;33.38;;;24.30;;
14892;SDS011;7538;53.626;9.906;2022-08-19T05:16:03;33.88;;;26.00;;
14892;SDS011;7538;53.626;9.906;2022-08-19T05:18:30;42.03;;;27.30;;
14892;SDS011;7538;53.626;9.906;2022-08-19T05:21:18;36.67;;;25.90;;
14892;SDS011;7538;53.626;9.906;2022-08-19T05:24:04;43.58;;;26.50;;
14892;SDS011;7538;53.626;9.906;2022-08-19T05:26:33;38.13;;;25.98;;
14892;SDS011;7538;53.626;9.906;2022-08-19T05:29:00;39.33;;;28.38;;
14892;SDS011;7538;53.626;9.906;2022-08-19T05:31:28;38.05;;;26.20;;
14892;SDS011;7538;53.626;9.906;2022-08-19T05:33:55;37.92;;;27.33;;
14892;SDS011;7538;53.626;9.906;2022-08-19T05:36:24;42.28;;;27.63;;
14892;SDS011;7538;53.626;9.906;2022-08-19T05:38:52;46.78;;;29.92;;
14892;SDS011;7538;53.626;9.906;2022-08-19T05:41:19;42.33;;;27.42;;
14892;SDS011;7538;53.626;9.906;2022-08-19T05:43:48;44.85;;;29.08;;
14892;SDS011;7538;53.626;9.906;2022-08-19T05:46:16;44.85;;;30.77;;
14892;SDS011;7538;53.626;9.906;2022-08-19T05:48:44;44.38;;;30.45;;
14892;SDS011;7538;53.626;9.906;2022-08-19T05:51:11;46.70;;;29.42;;
14892;SDS011;7538;53.626;9.906;2022-08-19T05:53:39;43.47;;;27.73;;
14892;SDS011;7538;53.626;9.906;2022-08-19T05:56:07;47.00;;;30.50;;
14892;SDS011;7538;53.626;9.906;2022-08-19T05:58:35;53.03;;;30.67;;
14892;SDS011;7538;53.626;9.906;2022-08-19T06:01:02;48.55;;;30.42;;
14892;SDS011;7538;53.626;9.906;2022-08-19T06:03:30;45.83;;;30.10;;
14892;SDS011;7538;53.626;9.906;2022-08-19T06:05:58;45.63;;;31.30;;
14892;SDS011;7538;53.626;9.906;2022-08-19T06:08:26;43.05;;;27.30;;
14892;SDS011;7538;53.626;9.906;2022-08-19T06:10:54;44.28;;;28.40;;
14892;SDS011;7538;53.626;9.906;2022-08-19T06:13:22;42.80;;;29.42;;
14892;SDS011;7538;53.626;9.906;2022-08-19T06:15:50;46.90;;;28.17;;
14892;SDS011;7538;53.626;9.906;2022-08-19T06:18:17;40.88;;;25.52;;
14892;SDS011;7538;53.626;9.906;2022-08-19T06:20:45;32.53;;;22.30;;
14892;SDS011;7538;53.626;9.906;2022-08-19T06:23:14;47.95;;;28.05;;
14892;SDS011;7538;53.626;9.906;2022-08-19T06:25:41;40.92;;;28.17;;
14892;SDS011;7538;53.626;9.906;2022-08-19T06:28:10;33.95;;;24.75;;
14892;SDS011;7538;53.626;9.906;2022-08-19T06:30:37;36.63;;;24.80;;
14892;SDS011;7538;53.626;9.906;2022-08-19T06:33:04;43.72;;;28.45;;
14892;SDS011;7538;53.626;9.906;2022-08-19T06:35:31;35.10;;;25.48;;
14892;SDS011;7538;53.626;9.906;2022-08-19T06:37:58;30.45;;;22.70;;
14892;SDS011;7538;53.626;9.906;2022-08-19T06:40:25;35.75;;;24.95;;
14892;SDS011;7538;53.626;9.906;2022-08-19T06:42:52;38.63;;;26.20;;
14892;SDS011;7538;53.626;9.906;2022-08-19T06:45:22;36.22;;;24.88;;
14892;SDS011;7538;53.626;9.906;2022-08-19T06:47:50;36.53;;;26.02;;
14892;SDS011;7538;53.626;9.906;2022-08-19T06:50:20;38.35;;;24.45;;
14892;SDS011;7538;53.626;9.906;2022-08-19T06:52:47;36.10;;;23.25;;
14892;SDS011;7538;53.626;9.906;2022-08-19T06:55:15;25.50;;;20.67;;
14892;SDS011;7538;53.626;9.906;2022-08-19T06:57:42;23.27;;;17.17;;
14892;SDS011;7538;53.626;9.906;2022-08-19T07:00:11;22.65;;;17.80;;
14892;SDS011;7538;53.626;9.906;2022-08-19T07:02:40;23.33;;;18.45;;
14892;SDS011;7538;53.626;9.906;2022-08-19T07:05:07;23.42;;;17.50;;
14892;SDS011;7538;53.626;9.906;2022-08-19T07:07:34;20.40;;;15.52;;
14892;SDS011;7538;53.626;9.906;2022-08-19T07:10:03;19.92;;;16.27;;
14892;SDS011;7538;53.626;9.906;2022-08-19T07:12:30;20.80;;;15.95;;
14892;SDS011;7538;53.626;9.906;2022-08-19T07:14:59;18.25;;;16.13;;
14892;SDS011;7538;53.626;9.906;2022-08-19T07:17:27;20.92;;;16.42;;
14892;SDS011;7538;53.626;9.906;2022-08-19T07:19:55;20.02;;;15.13;;
14892;SDS011;7538;53.626;9.906;2022-08-19T07:22:22;20.95;;;15.38;;
14892;SDS011;7538;53.626;9.906;2022-08-19T07:24:50;18.10;;;14.32;;
14892;SDS011;7538;53.626;9.906;2022-08-19T07:27:17;17.70;;;14.70;;
14892;SDS011;7538;53.626;9.906;2022-08-19T07:29:44;22.67;;;16.10;;
14892;SDS011;7538;53.626;9.906;2022-08-19T07:32:12;17.70;;;15.02;;
14892;SDS011;7538;53.626;9.906;2022-08-19T07:34:39;17.92;;;15.23;;
14892;SDS011;7538;53.626;9.906;2022-08-19T07:37:07;17.77;;;14.65;;
14892;SDS011;7538;53.626;9.906;2022-08-19T07:39:35;20.42;;;15.52;;
14892;SDS011;7538;53.626;9.906;2022-08-19T07:42:05;20.08;;;14.50;;
14892;SDS011;7538;53.626;9.906;2022-08-19T07:44:34;15.75;;;13.88;;
14892;SDS011;7538;53.626;9.906;2022-08-19T07:47:01;17.17;;;14.25;;
14892;SDS011;7538;53.626;9.906;2022-08-19T07:49:30;17.52;;;13.82;;
14892;SDS011;7538;53.626;9.906;2022-08-19T07:51:58;17.95;;;15.10;;
14892;SDS011;7538;53.626;9.906;2022-08-19T07:54:29;17.33;;;13.98;;
14892;SDS011;7538;53.626;9.906;2022-08-19T07:56:57;18.80;;;14.90;;
14892;SDS011;7538;53.626;9.906;2022-08-19T07:59:24;19.73;;;13.75;;
14892;SDS011;7538;53.626;9.906;2022-08-19T08:01:53;17.25;;;15.35;;
14892;SDS011;7538;53.626;9.906;2022-08-19T08:04:20;17.02;;;13.98;;
14892;SDS011;7538;53.626;9.906;2022-08-19T08:07:05;17.98;;;14.80;;
14892;SDS011;7538;53.626;9.906;2022-08-19T08:09:52;22.58;;;16.38;;
14892;SDS011;7538;53.626;9.906;2022-08-19T08:12:21;19.25;;;15.40;;
14892;SDS011;7538;53.626;9.906;2022-08-19T08:14:51;18.90;;;14.93;;
14892;SDS011;7538;53.626;9.906;2022-08-19T08:17:19;22.35;;;15.43;;
14892;SDS011;7538;53.626;9.906;2022-08-19T08:19:48;15.30;;;13.75;;
14892;SDS011;7538;53.626;9.906;2022-08-19T08:22:16;15.27;;;11.68;;
14892;SDS011;7538;53.626;9.906;2022-08-19T08:25:02;12.10;;;10.15;;
14892;SDS011;7538;53.626;9.906;2022-08-19T08:27:29;15.40;;;11.80;;
14892;SDS011;7538;53.626;9.906;2022-08-19T08:29:57;15.20;;;11.38;;
14892;SDS011;7538;53.626;9.906;2022-08-19T08:32:24;15.82;;;12.68;;
14892;SDS011;7538;53.626;9.906;2022-08-19T08:34:52;15.63;;;11.35;;
14892;SDS011;7538;53.626;9.906;2022-08-19T08:37:19;16.73;;;13.48;;
14892;SDS011;7538;53.626;9.906;2022-08-19T08:39:47;18.55;;;13.68;;
14892;SDS011;7538;53.626;9.906;2022-08-19T08:42:18;18.67;;;14.50;;
14892;SDS011;7538;53.626;9.906;2022-08-19T08:44:48;16.38;;;13.18;;
14892;SDS011;7538;53.626;9.906;2022-08-19T08:47:17;16.05;;;12.57;;
14892;SDS011;7538;53.626;9.906;2022-08-19T08:49:47;15.57;;;12.32;;
14892;SDS011;7538;53.626;9.906;2022-08-19T08:52:18;16.10;;;12.27;;
14892;SDS011;7538;53.626;9.906;2022-08-19T08:54:47;16.13;;;12.10;;
14892;SDS011;7538;53.626;9.906;2022-08-19T08:57:18;13.93;;;11.85;;
14892;SDS011;7538;53.626;9.906;2022-08-19T08:59:50;14.05;;;11.02;;
14892;SDS011;7538;53.626;9.906;2022-08-19T09:02:18;11.32;;;10.02;;
14892;SDS011;7538;53.626;9.906;2022-08-19T09:04:45;13.98;;;12.23;;
14892;SDS011;7538;53.626;9.906;2022-08-19T09:07:20;13.50;;;11.10;;
14892;SDS011;7538;53.626;9.906;2022-08-19T09:10:00;16.38;;;13.05;;
14892;SDS011;7538;53.626;9.906;2022-08-19T09:12:35;17.65;;;13.18;;
14892;SDS011;7538;53.626;9.906;2022-08-19T09:15:10;17.35;;;13.60;;
14892;SDS011;7538;53.626;9.906;2022-08-19T09:17:38;16.75;;;13.43;;
14892;SDS011;7538;53.626;9.906;2022-08-19T09:20:17;17.83;;;14.57;;
14892;SDS011;7538;53.626;9.906;2022-08-19T09:22:46;14.95;;;12.93;;
14892;SDS011;7538;53.626;9.906;2022-08-19T09:25:14;15.98;;;13.25;;
14892;SDS011;7538;53.626;9.906;2022-08-19T09:27:43;14.40;;;12.68;;
14892;SDS011;7538;53.626;9.906;2022-08-19T09:30:12;17.77;;;13.48;;
14892;SDS011;7538;53.626;9.906;2022-08-19T09:32:42;18.35;;;14.05;;
14892;SDS011;7538;53.626;9.906;2022-08-19T09:35:10;19.08;;;14.18;;
14892;SDS011;7538;53.626;9.906;2022-08-19T09:37:37;18.90;;;13.10;;
14892;SDS011;7538;53.626;9.906;2022-08-19T09:40:05;17.77;;;13.68;;
14892;SDS011;7538;53.626;9.906;2022-08-19T09:42:32;15.50;;;13.57;;
14892;SDS011;7538;53.626;9.906;2022-08-19T09:45:01;16.45;;;14.18;;
14892;SDS011;7538;53.626;9.906;2022-08-19T09:47:29;16.45;;;14.48;;
14892;SDS011;7538;53.626;9.906;2022-08-19T09:49:57;20.00;;;14.95;;
14892;SDS011;7538;53.626;9.906;2022-08-19T09:52:24;20.00;;;14.90;;
14892;SDS011;7538;53.626;9.906;2022-08-19T09:54:51;18.60;;;14.60;;
14892;SDS011;7538;53.626;9.906;2022-08-19T09:57:19;17.17;;;14.07;;
14892;SDS011;7538;53.626;9.906;2022-08-19T09:59:46;16.10;;;13.85;;
14892;SDS011;7538;53.626;9.906;2022-08-19T10:02:14;18.10;;;14.15;;
14892;SDS011;7538;53.626;9.906;2022-08-19T10:04:41;23.33;;;16.83;;
14892;SDS011;7538;53.626;9.906;2022-08-19T10:07:26;20.20;;;17.25;;
14892;SDS011;7538;53.626;9.906;2022-08-19T10:09:55;21.67;;;17.42;;
14892;SDS011;7538;53.626;9.906;2022-08-19T10:12:22;20.45;;;17.88;;
14892;SDS011;7538;53.626;9.906;2022-08-19T10:14:49;20.30;;;18.13;;
14892;SDS011;7538;53.626;9.906;2022-08-19T10:17:19;25.50;;;18.92;;
14892;SDS011;7538;53.626;9.906;2022-08-19T10:19:46;19.73;;;17.23;;
14892;SDS011;7538;53.626;9.906;2022-08-19T10:22:14;20.30;;;17.77;;
14892;SDS011;7538;53.626;9.906;2022-08-19T10:24:41;18.42;;;15.57;;
14892;SDS011;7538;53.626;9.906;2022-08-19T10:27:08;23.30;;;18.30;;
14892;SDS011;7538;53.626;9.906;2022-08-19T10:29:35;21.48;;;19.10;;
14892;SDS011;7538;53.626;9.906;2022-08-19T10:32:03;24.08;;;18.08;;
14892;SDS011;7538;53.626;9.906;2022-08-19T10:34:32;24.50;;;19.63;;
14892;SDS011;7538;53.626;9.906;2022-08-19T10:37:00;22.02;;;19.48;;
14892;SDS011;7538;53.626;9.906;2022-08-19T10:39:27;24.15;;;19.45;;
14892;SDS011;7538;53.626;9.906;2022-08-19T10:41:55;30.10;;;19.10;;
14892;SDS011;7538;53.626;9.906;2022-08-19T10:44:23;22.42;;;19.13;;
14892;SDS011;7538;53.626;9.906;2022-08-19T10:46:50;26.27;;;19.55;;
14892;SDS011;7538;53.626;9.906;2022-08-19T10:49:17;30.30;;;20.65;;
14892;SDS011;7538;53.626;9.906;2022-08-19T10:51:47;25.08;;;20.33;;
14892;SDS011;7538;53.626;9.906;2022-08-19T10:54:32;24.48;;;19.25;;
14892;SDS011;7538;53.626;9.906;2022-08-19T10:57:17;22.67;;;18.27;;
14892;SDS011;7538;53.626;9.906;2022-08-19T10:59:44;23.40;;;18.52;;
14892;SDS011;7538;53.626;9.906;2022-08-19T11:02:12;20.73;;;17.63;;
14892;SDS011;7538;53.626;9.906;2022-08-19T11:04:39;20.63;;;16.67;;
14892;SDS011;7538;53.626;9.906;2022-08-19T11:07:08;20.27;;;17.27;;
14892;SDS011;7538;53.626;9.906;2022-08-19T11:09:37;18.33;;;15.25;;
14892;SDS011;7538;53.626;9.906;2022-08-19T11:12:06;22.10;;;16.92;;
14892;SDS011;7538;53.626;9.906;2022-08-19T11:14:34;18.20;;;15.20;;
14892;SDS011;7538;53.626;9.906;2022-08-19T11:17:02;20.67;;;15.73;;
14892;SDS011;7538;53.626;9.906;2022-08-19T11:19:30;19.23;;;15.25;;
14892;SDS011;7538;53.626;9.906;2022-08-19T11:21:57;19.00;;;15.68;;
14892;SDS011;7538;53.626;9.906;2022-08-19T11:24:28;16.23;;;14.18;;
14892;SDS011;7538;53.626;9.906;2022-08-19T11:27:00;15.07;;;13.43;;
14892;SDS011;7538;53.626;9.906;2022-08-19T11:29:29;15.43;;;13.18;;
14892;SDS011;7538;53.626;9.906;2022-08-19T11:31:57;13.93;;;12.38;;
14892;SDS011;7538;53.626;9.906;2022-08-19T11:34:26;17.17;;;14.80;;
14892;SDS011;7538;53.626;9.906;2022-08-19T11:36:55;13.30;;;11.45;;
14892;SDS011;7538;53.626;9.906;2022-08-19T11:39:24;17.50;;;14.02;;
14892;SDS011;7538;53.626;9.906;2022-08-19T11:41:54;14.85;;;12.50;;
14892;SDS011;7538;53.626;9.906;2022-08-19T11:44:21;14.80;;;13.32;;
14892;SDS011;7538;53.626;9.906;2022-08-19T11:46:48;14.90;;;13.30;;
14892;SDS011;7538;53.626;9.906;2022-08-19T11:49:17;16.35;;;14.15;;
14892;SDS011;7538;53.626;9.906;2022-08-19T11:51:46;14.98;;;13.02;;
14892;SDS011;7538;53.626;9.906;2022-08-19T11:54:15;14.15;;;12.18;;
14892;SDS011;7538;53.626;9.906;2022-08-19T11:56:42;14.18;;;12.52;;
14892;SDS011;7538;53.626;9.906;2022-08-19T11:59:12;17.58;;;13.73;;
14892;SDS011;7538;53.626;9.906;2022-08-19T12:01:38;15.68;;;14.07;;
14892;SDS011;7538;53.626;9.906;2022-08-19T12:04:07;20.58;;;17.75;;
14892;SDS011;7538;53.626;9.906;2022-08-19T12:06:36;17.73;;;15.85;;
14892;SDS011;7538;53.626;9.906;2022-08-19T12:09:05;115.03;;;67.80;;
14892;SDS011;7538;53.626;9.906;2022-08-19T12:11:34;132.30;;;65.68;;
14892;SDS011;7538;53.626;9.906;2022-08-19T12:14:02;53.97;;;33.65;;
14892;SDS011;7538;53.626;9.906;2022-08-19T12:16:31;27.08;;;20.13;;
14892;SDS011;7538;53.626;9.906;2022-08-19T12:18:58;14.82;;;12.68;;
14892;SDS011;7538;53.626;9.906;2022-08-19T12:21:29;14.98;;;13.38;;
14892;SDS011;7538;53.626;9.906;2022-08-19T12:23:58;12.38;;;11.18;;
14892;SDS011;7538;53.626;9.906;2022-08-19T12:26:26;12.35;;;11.05;;
14892;SDS011;7538;53.626;9.906;2022-08-19T12:28:56;10.48;;;9.32;;
14892;SDS011;7538;53.626;9.906;2022-08-19T12:31:24;14.68;;;13.23;;
14892;SDS011;7538;53.626;9.906;2022-08-19T12:33:52;13.07;;;11.77;;
14892;SDS011;7538;53.626;9.906;2022-08-19T12:36:21;13.45;;;12.15;;
14892;SDS011;7538;53.626;9.906;2022-08-19T12:38:49;14.00;;;12.60;;
14892;SDS011;7538;53.626;9.906;2022-08-19T12:41:17;13.45;;;12.15;;
14892;SDS011;7538;53.626;9.906;2022-08-19T12:43:46;12.07;;;10.88;;
14892;SDS011;7538;53.626;9.906;2022-08-19T12:46:14;13.90;;;12.63;;
14892;SDS011;7538;53.626;9.906;2022-08-19T12:48:41;11.75;;;10.63;;
14892;SDS011;7538;53.626;9.906;2022-08-19T12:51:12;14.00;;;12.57;;
14892;SDS011;7538;53.626;9.906;2022-08-19T12:53:41;15.50;;;12.38;;
14892;SDS011;7538;53.626;9.906;2022-08-19T12:56:10;12.68;;;11.38;;
14892;SDS011;7538;53.626;9.906;2022-08-19T12:58:39;12.73;;;11.50;;
14892;SDS011;7538;53.626;9.906;2022-08-19T13:01:08;13.40;;;12.02;;
14892;SDS011;7538;53.626;9.906;2022-08-19T13:03:36;13.98;;;12.48;;
14892;SDS011;7538;53.626;9.906;2022-08-19T13:06:04;13.88;;;12.57;;
14892;SDS011;7538;53.626;9.906;2022-08-19T13:08:32;13.00;;;11.70;;
14892;SDS011;7538;53.626;9.906;2022-08-19T13:11:06;11.82;;;10.73;;
14892;SDS011;7538;53.626;9.906;2022-08-19T13:13:37;13.85;;;12.48;;
14892;SDS011;7538;53.626;9.906;2022-08-19T13:16:06;13.30;;;11.98;;
14892;SDS011;7538;53.626;9.906;2022-08-19T13:18:34;10.73;;;9.60;;
14892;SDS011;7538;53.626;9.906;2022-08-19T13:21:02;13.85;;;12.27;;
14892;SDS011;7538;53.626;9.906;2022-08-19T13:23:30;12.70;;;11.20;;
14892;SDS011;7538;53.626;9.906;2022-08-19T13:25:59;13.75;;;12.45;;
14892;SDS011;7538;53.626;9.906;2022-08-19T13:28:28;13.63;;;12.30;;
14892;SDS011;7538;53.626;9.906;2022-08-19T13:31:16;12.98;;;11.77;;
14892;SDS011;7538;53.626;9.906;2022-08-19T13:34:01;12.32;;;11.10;;
14892;SDS011;7538;53.626;9.906;2022-08-19T13:36:30;13.57;;;11.75;;
14892;SDS011;7538;53.626;9.906;2022-08-19T13:38:57;12.05;;;10.85;;
14892;SDS011;7538;53.626;9.906;2022-08-19T13:41:26;13.52;;;12.13;;
14892;SDS011;7538;53.626;9.906;2022-08-19T13:43:54;12.45;;;11.43;;
14892;SDS011;7538;53.626;9.906;2022-08-19T13:46:21;12.93;;;11.73;;
14892;SDS011;7538;53.626;9.906;2022-08-19T13:48:48;11.98;;;10.88;;
14892;SDS011;7538;53.626;9.906;2022-08-19T13:51:16;14.15;;;12.75;;
14892;SDS011;7538;53.626;9.906;2022-08-19T13:53:44;12.60;;;11.30;;
14892;SDS011;7538;53.626;9.906;2022-08-19T13:56:11;13.98;;;12.73;;
14892;SDS011;7538;53.626;9.906;2022-08-19T13:58:42;16.67;;;15.07;;
14892;SDS011;7538;53.626;9.906;2022-08-19T14:01:09;16.27;;;14.57;;
14892;SDS011;7538;53.626;9.906;2022-08-19T14:03:36;16.25;;;14.75;;
14892;SDS011;7538;53.626;9.906;2022-08-19T14:06:04;17.67;;;15.88;;
14892;SDS011;7538;53.626;9.906;2022-08-19T14:08:31;18.02;;;16.33;;
14892;SDS011;7538;53.626;9.906;2022-08-19T14:10:59;17.10;;;15.50;;
14892;SDS011;7538;53.626;9.906;2022-08-19T14:13:26;17.98;;;16.27;;
14892;SDS011;7538;53.626;9.906;2022-08-19T14:15:55;17.17;;;15.55;;
14892;SDS011;7538;53.626;9.906;2022-08-19T14:18:23;17.77;;;16.10;;
14892;SDS011;7538;53.626;9.906;2022-08-19T14:20:50;18.70;;;16.90;;
14892;SDS011;7538;53.626;9.906;2022-08-19T14:23:17;17.42;;;15.82;;
14892;SDS011;7538;53.626;9.906;2022-08-19T14:25:45;18.08;;;16.25;;
14892;SDS011;7538;53.626;9.906;2022-08-19T14:28:12;17.27;;;15.48;;
14892;SDS011;7538;53.626;9.906;2022-08-19T14:30:39;15.38;;;14.05;;
14892;SDS011;7538;53.626;9.906;2022-08-19T14:33:08;15.95;;;14.38;;
14892;SDS011;7538;53.626;9.906;2022-08-19T14:35:35;16.30;;;14.75;;
14892;SDS011;7538;53.626;9.906;2022-08-19T14:38:03;11.85;;;10.85;;
14892;SDS011;7538;53.626;9.906;2022-08-19T14:40:31;14.77;;;13.35;;
14892;SDS011;7538;53.626;9.906;2022-08-19T14:43:00;12.00;;;10.80;;